QR920 / A7-BBC 7700 Squawk Report (11th of August, 2019)

Aircraft B77L Reg No. A7-BBC Age 9 years old
Model 777 Jet engines 2 First flight 19-10-09
Registered 11-09 Rollout 06-10-09 Delivered 10-11-09
Construction No. 36015 Line No. 0825 Series 2DZ(LR)
ADSHEX 06A073 Airline name Qatar Airways Owner N/A
Airfield based Doha~ ~A7 First tracked 2017-07-13 14:55:00

Flight history for A7-BBC

Route Flight No Date Playback
???? N/A 2019-09-21 21:05:00
Hamad International Airport (DOH) - Imam Khomeini (IKA) QR498 2019-09-21 20:17:00
Malaga (AGP) - Hamad International Airport (DOH) QR156 2019-09-21 16:09:00
Bahrain Intl (BAH) - Hamad International Airport (DOH) QR155 2019-09-21 07:16:00
Kuwait Intl (KWI) - Hamad International Airport (DOH) QR1089 2019-09-20 22:32:00
Hamad International Airport (DOH) - Kuwait Intl (KWI) QR1088 2019-09-20 17:20:00
Hartsfield Jackson Atlanta Intl (ATL) - Hamad International Airport (DOH) QR756 2019-09-20 16:17:00
Hamad International Airport (DOH) - Hartsfield Jackson Atlanta Intl (ATL) QR755 2019-09-19 20:45:00
Auckland Airport (AKL) - Hamad International Airport (DOH) QR921 2019-09-19 06:21:00
Auckland Airport (AKL) - Hamad International Airport (DOH) QR921 2019-09-18 19:40:00
Hamad International Airport (DOH) - Auckland Airport (AKL) QR920 2019-09-17 16:38:00
Auckland Airport (AKL) - Hamad International Airport (DOH) QR921 2019-09-17 00:19:00
Hamad International Airport (DOH) - Auckland Airport (AKL) QR920 2019-09-15 16:38:00
Auckland Airport (AKL) - Hamad International Airport (DOH) QR921 2019-09-15 00:29:00
Hamad International Airport (DOH) - Auckland Airport (AKL) QR920 2019-09-13 16:18:00
Ministro Pistarini (EZE) - Guarulhos Gov Andre Franco Montoro (GRU) - Hamad International Airport (DOH) QR774 2019-09-12 20:49:00
Hamad International Airport (DOH) - Guarulhos Gov Andre Franco Montoro (GRU) - Ministro Pistarini (EZE) QR773 2019-09-12 02:18:00
Kuala Lumpur Intl (KUL) - Hamad International Airport (DOH) QR853 2019-09-11 04:24:00
Hamad International Airport (DOH) - Kuala Lumpur Intl (KUL) QR852 2019-09-10 18:31:00
Copenhagen Airport (CPH) - Hamad International Airport (DOH) QR160 2019-09-10 05:57:00
Time Lat Lon Altitude Heading Speed Vertical Rate
2019-08-11 01:38:54 GMT 25.276039 51.616985 0 255 11 0
2019-08-11 01:38:45 GMT 25.276131 51.617481 0 300 10 0
2019-08-11 01:38:34 GMT 25.275827 51.617825 0 337 13 0
2019-08-11 01:38:14 GMT 25.273849 51.618694 0 337 45 0
2019-08-11 01:38:02 GMT 25.270975 51.619961 0 337 82 0
2019-08-11 01:37:49 GMT 25.265947 51.622166 450 339 123 -128
2019-08-11 01:37:36 GMT 25.257895 51.625690 450 339 145 -256
2019-08-11 01:37:25 GMT 25.250610 51.628925 675 338 143 -768
2019-08-11 01:37:21 GMT 25.249054 51.629589 700 338 141 -704
2019-08-11 01:37:15 GMT 25.244522 51.631622 775 339 140 -704
2019-08-11 01:37:08 GMT 25.240860 51.633198 850 339 140 -704
2019-08-11 01:36:49 GMT 25.229782 51.638031 1,075 338 130 -576
2019-08-11 01:36:35 GMT 25.221634 51.641693 1,225 338 128 -640
2019-08-11 01:36:28 GMT 25.218063 51.643269 1,275 338 129 -576
2019-08-11 01:36:17 GMT 25.211946 51.646004 1,400 339 129 -640
2019-08-11 01:35:54 GMT 25.198727 51.651756 1,650 338 130 -640
2019-08-11 01:35:44 GMT 25.193419 51.654140 1,750 338 130 -640
2019-08-11 01:35:34 GMT 25.187599 51.656677 1,850 339 131 -640
2019-08-11 01:35:23 GMT 25.181456 51.659374 1,975 339 133 -640
2019-08-11 01:35:12 GMT 25.175264 51.662067 2,100 338 135 -704
2019-08-11 01:34:50 GMT 25.162184 51.667820 2,350 339 134 -704
2019-08-11 01:34:38 GMT 25.155624 51.670685 2,475 339 133 -640
2019-08-11 01:34:29 GMT 25.150219 51.673054 2,575 339 132 -576
2019-08-11 01:34:18 GMT 25.143768 51.675922 2,700 339 133 -640
2019-08-11 01:34:08 GMT 25.137882 51.678497 2,825 339 137 -640
2019-08-11 01:33:56 GMT 25.130768 51.681622 2,950 339 147 -704
2019-08-11 01:33:45 GMT 25.122894 51.685131 3,100 339 168 -896
2019-08-11 01:33:34 GMT 25.116257 51.688030 3,250 339 168 -896
2019-08-11 01:33:24 GMT 25.108648 51.691399 3,525 338 167 -64
2019-08-11 01:33:13 GMT 25.100693 51.694843 3,525 338 167 -64
2019-08-11 01:33:02 GMT 25.092957 51.698254 3,525 339 167 0
2019-08-11 01:32:50 GMT 25.084534 51.701965 3,525 339 167 0
2019-08-11 01:32:40 GMT 25.077225 51.705185 3,525 339 167 0
2019-08-11 01:32:30 GMT 25.069590 51.708500 3,525 339 167 0
2019-08-11 01:32:19 GMT 25.060978 51.712284 3,525 339 168 0
2019-08-11 01:32:08 GMT 25.054047 51.715393 3,525 339 168 0
2019-08-11 01:31:56 GMT 25.045303 51.719257 3,525 339 168 0
2019-08-11 01:31:47 GMT 25.038666 51.722260 3,525 337 168 0
2019-08-11 01:31:36 GMT 25.030792 51.725872 3,525 339 167 -64
2019-08-11 01:31:25 GMT 25.022781 51.729481 3,550 335 168 -64
2019-08-11 01:31:14 GMT 25.015265 51.733944 3,550 327 168 0
2019-08-11 01:31:03 GMT 25.008236 51.739594 3,525 312 170 64
2019-08-11 01:30:53 GMT 25.003693 51.747181 3,550 296 177 0
2019-08-11 01:30:42 GMT 24.999903 51.755970 3,525 296 177 0
2019-08-11 01:30:31 GMT 24.996094 51.764782 3,525 296 176 0
2019-08-11 01:30:20 GMT 24.992268 51.773590 3,525 296 176 0
2019-08-11 01:30:10 GMT 24.988495 51.782177 3,525 296 176 0
2019-08-11 01:29:59 GMT 24.984787 51.790569 3,550 296 176 0
2019-08-11 01:29:48 GMT 24.981049 51.799191 3,550 296 176 0
2019-08-11 01:29:33 GMT 24.975368 51.811989 3,550 296 176 0
2019-08-11 01:29:26 GMT 24.972900 51.817482 3,550 297 177 0
2019-08-11 01:29:15 GMT 24.968990 51.826084 3,550 297 177 0
2019-08-11 01:28:58 GMT 24.962612 51.840286 3,525 296 176 64
2019-08-11 01:28:49 GMT 24.960159 51.847279 3,525 274 184 64
2019-08-11 01:28:46 GMT 24.959518 51.851551 3,525 269 186 -64
2019-08-11 01:28:38 GMT 24.959885 51.858013 3,550 253 193 -320
2019-08-11 01:28:32 GMT 24.961542 51.863865 3,600 246 197 -704
2019-08-11 01:28:21 GMT 24.965744 51.873524 3,725 244 199 -704
2019-08-11 01:28:10 GMT 24.970184 51.883442 3,850 244 198 -704
2019-08-11 01:27:59 GMT 24.974577 51.893143 3,975 244 199 -704
2019-08-11 01:27:49 GMT 24.979019 51.902924 4,100 244 199 -704
2019-08-11 01:27:38 GMT 24.983421 51.912579 4,225 244 200 -704
2019-08-11 01:27:27 GMT 24.987900 51.922302 4,350 244 201 -704
2019-08-11 01:27:17 GMT 24.992386 51.932117 4,475 244 201 -704
2019-08-11 01:27:10 GMT 24.995773 51.939442 4,550 243 202 -704
2019-08-11 01:27:06 GMT 24.996872 51.941833 4,600 243 202 -704
2019-08-11 01:26:58 GMT 25.000320 51.949162 4,675 243 202 -704
2019-08-11 01:26:50 GMT 25.003952 51.957092 4,725 244 203 -704
2019-08-11 01:26:44 GMT 25.006327 51.962170 4,850 244 203 -704
2019-08-11 01:26:34 GMT 25.010748 51.971863 4,975 244 203 -704
2019-08-11 01:26:27 GMT 25.014221 51.979370 5,075 244 203 -704
2019-08-11 01:26:23 GMT 25.015228 51.981556 5,100 244 203 -704
2019-08-11 01:26:12 GMT 25.019897 51.991680 5,225 244 205 -704
2019-08-11 01:26:01 GMT 25.024658 52.002308 5,375 245 207 -704
2019-08-11 01:25:50 GMT 25.029327 52.013195 5,525 246 210 -768
2019-08-11 01:25:39 GMT 25.033539 52.023365 5,675 246 210 -960
2019-08-11 01:25:29 GMT 25.037703 52.033375 5,850 246 212 -1024
2019-08-11 01:25:17 GMT 25.042694 52.045643 6,050 247 213 -1024
2019-08-11 01:25:07 GMT 25.046539 52.055664 6,225 249 214 -960
2019-08-11 01:24:55 GMT 25.050201 52.067974 6,400 260 211 -896
2019-08-11 01:24:49 GMT 25.050877 52.074623 6,475 272 208 -768
2019-08-11 01:24:45 GMT 25.050783 52.078407 6,525 275 207 -192
2019-08-11 01:24:32 GMT 25.049665 52.091881 6,525 275 208 64
2019-08-11 01:24:22 GMT 25.049339 52.102715 6,525 270 216 0
2019-08-11 01:24:12 GMT 25.048553 52.114155 6,525 283 220 0
2019-08-11 01:24:05 GMT 25.046356 52.121582 6,525 294 220 -64
2019-08-11 01:23:59 GMT 25.043613 52.127174 6,525 303 223 -64
2019-08-11 01:23:56 GMT 25.041550 52.130280 6,525 313 223 -64
2019-08-11 01:23:51 GMT 25.038074 52.134533 6,550 322 223 -128
2019-08-11 01:23:44 GMT 25.032166 52.139690 6,550 329 222 -128
2019-08-11 01:23:39 GMT 25.027786 52.142303 6,550 334 223 -64
2019-08-11 01:23:33 GMT 25.022200 52.144638 6,550 344 224 64
2019-08-11 01:23:29 GMT 25.018011 52.145622 6,550 357 230 192
2019-08-11 01:23:22 GMT 25.009167 52.145779 6,525 11 241 0
2019-08-11 01:23:18 GMT 25.006439 52.145233 6,525 19 246 0
2019-08-11 01:23:07 GMT 24.994446 52.139740 6,525 40 255 0
2019-08-11 01:22:57 GMT 24.985983 52.131733 6,525 53 258 64
2019-08-11 01:22:51 GMT 24.980816 52.123077 6,525 69 265 64
2019-08-11 01:22:45 GMT 24.978907 52.117069 6,525 77 268 0
2019-08-11 01:22:42 GMT 24.977928 52.111835 6,525 84 270 -64
2019-08-11 01:22:33 GMT 24.977371 52.101543 6,525 88 271 -64
2019-08-11 01:22:30 GMT 24.977278 52.095200 6,525 89 271 0
2019-08-11 01:22:24 GMT 24.977184 52.088875 6,525 88 270 0
2019-08-11 01:22:12 GMT 24.976776 52.071583 6,525 88 269 0
2019-08-11 01:22:07 GMT 24.976580 52.064156 6,525 88 270 0
2019-08-11 01:22:03 GMT 24.976439 52.059338 6,525 88 271 0
2019-08-11 01:21:57 GMT 24.976135 52.050068 6,525 88 273 0
2019-08-11 01:21:51 GMT 24.975927 52.043377 6,525 87 275 0
2019-08-11 01:21:41 GMT 24.975462 52.029434 6,550 88 278 -64
2019-08-11 01:21:33 GMT 24.975136 52.017258 6,550 89 279 -64
2019-08-11 01:21:30 GMT 24.975082 52.013855 6,550 88 279 -64
2019-08-11 01:21:27 GMT 24.974991 52.007191 6,550 90 279 0
2019-08-11 01:21:20 GMT 24.974997 51.999069 6,550 95 281 64
2019-08-11 01:21:16 GMT 24.975508 51.992382 6,550 102 284 0
2019-08-11 01:21:08 GMT 24.978104 51.982525 6,550 115 285 0
2019-08-11 01:20:58 GMT 24.985336 51.970520 6,525 142 292 0
2019-08-11 01:20:48 GMT 24.997389 51.961395 6,525 159 293 0
2019-08-11 01:20:37 GMT 25.011658 51.958263 6,525 196 286 0
2019-08-11 01:20:33 GMT 25.017824 51.958698 6,525 257 264 0
2019-08-11 01:20:26 GMT 25.026157 51.961342 6,525 205 283 0
2019-08-11 01:20:15 GMT 25.037933 51.969604 6,525 229 275 0
2019-08-11 01:20:03 GMT 25.046631 51.982727 6,525 250 267 0
2019-08-11 01:19:54 GMT 25.049992 51.995026 6,525 267 261 -64
2019-08-11 01:19:43 GMT 25.050690 52.008915 6,525 270 260 0
2019-08-11 01:19:32 GMT 25.050888 52.024281 6,525 270 260 0
2019-08-11 01:19:21 GMT 25.051064 52.038815 6,525 270 260 0
2019-08-11 01:19:17 GMT 25.051117 52.043304 6,525 270 260 0
2019-08-11 01:19:11 GMT 25.051155 52.051514 6,525 270 260 0
2019-08-11 01:19:04 GMT 25.051155 52.060787 6,525 271 259 0
2019-08-11 01:18:49 GMT 25.050797 52.081501 6,550 272 259 -64
2019-08-11 01:18:43 GMT 25.050550 52.089031 6,550 272 259 -64
2019-08-11 01:18:39 GMT 25.050430 52.094067 6,550 271 260 0
2019-08-11 01:18:28 GMT 25.050339 52.108814 6,525 274 260 64
2019-08-11 01:18:21 GMT 25.049286 52.118176 6,525 296 257 0
2019-08-11 01:18:17 GMT 25.048130 52.122456 6,525 293 258 0
2019-08-11 01:18:12 GMT 25.045578 52.128857 6,525 304 255 0
2019-08-11 01:18:02 GMT 25.039032 52.138874 6,550 316 253 0
2019-08-11 01:17:55 GMT 25.032669 52.144775 6,525 340 250 0
2019-08-11 01:17:52 GMT 25.028439 52.147488 6,525 337 250 0
2019-08-11 01:17:42 GMT 25.018753 52.151134 6,525 349 252 0
2019-08-11 01:17:35 GMT 25.009026 52.151943 6,525 0 254 0
2019-08-11 01:17:32 GMT 25.007263 52.151844 6,525 7 255 0
2019-08-11 01:17:27 GMT 25.000740 52.150494 6,525 18 258 0
2019-08-11 01:17:22 GMT 24.995712 52.148628 6,525 31 262 0
2019-08-11 01:17:19 GMT 24.991848 52.146450 6,525 33 262 0
2019-08-11 01:17:12 GMT 24.985565 52.141521 6,525 45 266 64
2019-08-11 01:16:57 GMT 24.974577 52.123909 6,525 80 279 -64
2019-08-11 01:16:51 GMT 24.972809 52.115616 6,525 85 281 -64
2019-08-11 01:16:46 GMT 24.972296 52.108932 6,525 89 282 -64
2019-08-11 01:16:40 GMT 24.972153 52.100170 6,525 89 282 0
2019-08-11 01:16:25 GMT 24.971741 52.077686 6,525 88 283 0
2019-08-11 01:16:15 GMT 24.971329 52.063141 6,525 87 283 0
2019-08-11 01:16:06 GMT 24.970945 52.051151 6,525 87 283 0
2019-08-11 01:16:00 GMT 24.970528 52.040630 6,525 87 284 -64
2019-08-11 01:15:57 GMT 24.970434 52.038193 6,550 87 284 -64
2019-08-11 01:15:54 GMT 24.970230 52.032116 6,550 87 284 -64
2019-08-11 01:15:46 GMT 24.969921 52.021561 6,550 88 284 -64
2019-08-11 01:15:41 GMT 24.969782 52.013786 6,550 89 284 0
2019-08-11 01:15:35 GMT 24.969727 52.006836 6,550 90 284 0
2019-08-11 01:15:31 GMT 24.969782 51.999588 6,550 94 286 64
2019-08-11 01:15:20 GMT 24.971924 51.985023 6,550 102 290 0
2019-08-11 01:15:11 GMT 24.977510 51.973053 6,550 130 295 0
2019-08-11 01:15:04 GMT 24.984879 51.964722 6,550 148 298 0
2019-08-11 01:14:53 GMT 24.998337 51.957092 6,525 168 297 0
2019-08-11 01:14:44 GMT 25.009911 51.955280 6,525 187 292 0
2019-08-11 01:14:41 GMT 25.014542 51.955669 6,525 197 291 0
2019-08-11 01:14:36 GMT 25.021591 51.957348 6,525 199 290 0
2019-08-11 01:14:31 GMT 25.026623 51.959530 6,525 214 287 0
2019-08-11 01:14:20 GMT 25.038574 51.969097 6,525 228 281 0
2019-08-11 01:14:15 GMT 25.043152 51.975300 6,525 250 273 0
2019-08-11 01:14:07 GMT 25.047756 51.984818 6,525 247 274 0
2019-08-11 01:13:58 GMT 25.050270 51.996010 6,525 267 266 -64
2019-08-11 01:13:48 GMT 25.050705 52.009533 6,525 270 265 0
2019-08-11 01:13:43 GMT 25.050783 52.017361 6,525 270 265 0
2019-08-11 01:13:38 GMT 25.050842 52.024078 6,525 270 265 0
2019-08-11 01:13:32 GMT 25.050922 52.032337 6,525 270 266 0
2019-08-11 01:13:27 GMT 25.050934 52.039135 6,525 270 265 0
2019-08-11 01:13:23 GMT 25.050970 52.045864 6,525 270 265 0
2019-08-11 01:13:14 GMT 25.051025 52.055714 6,525 270 265 0
2019-08-11 01:13:11 GMT 25.051025 52.062073 6,525 271 265 0
2019-08-11 01:12:54 GMT 25.050644 52.083279 6,550 273 266 -64
2019-08-11 01:12:47 GMT 25.050270 52.093594 6,550 270 266 0
2019-08-11 01:12:43 GMT 25.050247 52.097218 6,550 270 266 0
2019-08-11 01:12:35 GMT 25.050339 52.110699 6,525 274 265 64
2019-08-11 01:12:29 GMT 25.049927 52.118683 6,525 309 260 0
2019-08-11 01:12:20 GMT 25.047409 52.129211 6,550 295 261 0
2019-08-11 01:12:13 GMT 25.043707 52.137123 6,525 309 260 0
2019-08-11 01:12:08 GMT 25.040359 52.142029 6,525 312 259 0
2019-08-11 01:11:58 GMT 25.031113 52.150524 6,525 335 260 -64
2019-08-11 01:11:49 GMT 25.020309 52.155457 6,550 352 261 64
2019-08-11 01:11:39 GMT 25.008545 52.156879 6,550 5 262 0
2019-08-11 01:11:23 GMT 24.989731 52.150269 6,525 42 269 0
2019-08-11 01:11:18 GMT 24.984726 52.146244 6,525 46 270 64
2019-08-11 01:11:06 GMT 24.975494 52.134247 6,525 66 276 -64
2019-08-11 01:10:53 GMT 24.970667 52.116600 6,525 85 282 -64
2019-08-11 01:10:39 GMT 24.970247 52.095665 6,525 89 284 0
2019-08-11 01:10:36 GMT 24.970230 52.091930 6,525 88 283 0
2019-08-11 01:10:33 GMT 24.970139 52.087605 6,525 88 283 0
2019-08-11 01:10:23 GMT 24.969772 52.073109 6,550 87 281 0
2019-08-11 01:10:09 GMT 24.969131 52.053482 6,550 87 281 0
2019-08-11 01:10:00 GMT 24.968674 52.040100 6,525 88 286 -64
2019-08-11 01:09:34 GMT 24.968014 52.001556 6,550 90 290 0
2019-08-11 01:09:29 GMT 24.968307 51.994732 6,550 97 293 64
2019-08-11 01:09:19 GMT 24.971924 51.980133 6,550 116 300 0
2019-08-11 01:09:10 GMT 24.979279 51.968391 6,550 148 304 64
2019-08-11 01:09:06 GMT 24.982864 51.964657 6,550 143 304 0
2019-08-11 01:08:58 GMT 24.992733 51.958027 6,550 160 302 64
2019-08-11 01:08:48 GMT 25.007025 51.954605 6,525 184 300 0
2019-08-11 01:08:37 GMT 25.021967 51.957249 6,525 205 295 0
2019-08-11 01:08:26 GMT 25.034912 51.965435 6,525 230 285 0
2019-08-11 01:08:15 GMT 25.043987 51.976837 6,525 246 279 0
2019-08-11 01:08:01 GMT 25.049698 51.995289 6,525 263 275 -64
2019-08-11 01:07:53 GMT 25.050110 52.006683 6,525 270 271 0
2019-08-11 01:07:42 GMT 25.050224 52.022129 6,525 270 271 0
2019-08-11 01:07:31 GMT 25.050430 52.037098 6,525 270 272 0
2019-08-11 01:07:20 GMT 25.050644 52.052185 6,525 270 272 0
2019-08-11 01:07:09 GMT 25.050842 52.068226 6,550 270 272 0
2019-08-11 01:06:53 GMT 25.050934 52.090046 6,550 271 270 0
2019-08-11 01:06:49 GMT 25.050831 52.095562 6,550 271 272 0
2019-08-11 01:06:38 GMT 25.050705 52.110851 6,525 272 277 0
2019-08-11 01:06:23 GMT 25.047775 52.131756 6,525 287 275 0
2019-08-11 01:06:09 GMT 25.038437 52.147472 6,550 325 270 0
2019-08-11 01:06:00 GMT 25.028961 52.155102 6,550 326 269 0
2019-08-11 01:05:51 GMT 25.016706 52.159718 6,550 9 269 0
2019-08-11 01:05:44 GMT 25.010004 52.160236 6,550 3 269 0
2019-08-11 01:05:34 GMT 24.997513 52.157848 6,550 22 273 0
2019-08-11 01:05:28 GMT 24.990219 52.154121 6,550 33 275 0
2019-08-11 01:05:23 GMT 24.985565 52.150623 6,525 42 278 64
2019-08-11 01:05:11 GMT 24.975462 52.137642 6,525 66 287 64
2019-08-11 01:05:01 GMT 24.971420 52.124023 6,525 84 294 -64
2019-08-11 01:04:50 GMT 24.970734 52.106476 6,525 89 294 0
2019-08-11 01:04:43 GMT 24.970596 52.096760 6,525 88 294 0
2019-08-11 01:04:39 GMT 24.970505 52.090607 6,525 88 293 0
2019-08-11 01:04:29 GMT 24.970093 52.075550 6,525 87 293 0
2019-08-11 01:04:16 GMT 24.969269 52.055664 6,525 87 293 0
2019-08-11 01:04:08 GMT 24.968719 52.044323 6,550 86 293 -64
2019-08-11 01:04:02 GMT 24.968153 52.033428 6,550 87 293 -64
2019-08-11 01:03:57 GMT 24.967920 52.027882 6,550 87 294 -64
2019-08-11 01:03:52 GMT 24.967621 52.020416 6,550 88 295 -64
2019-08-11 01:03:44 GMT 24.967392 52.008106 6,550 90 296 -64
2019-08-11 01:03:35 GMT 24.967758 51.994526 6,550 96 298 64
2019-08-11 01:03:25 GMT 24.971420 51.979321 6,550 117 306 0
2019-08-11 01:03:20 GMT 24.974899 51.972759 6,550 140 310 0
2019-08-11 01:03:13 GMT 24.980759 51.965382 6,550 142 310 0
2019-08-11 01:03:01 GMT 24.996140 51.955822 6,525 166 309 0
2019-08-11 01:02:52 GMT 25.009094 51.953888 6,525 190 306 0
2019-08-11 01:02:47 GMT 25.016647 51.954906 6,525 196 303 0
2019-08-11 01:02:42 GMT 25.022667 51.956779 6,525 206 301 0
2019-08-11 01:02:30 GMT 25.037247 51.967163 6,525 226 292 0
2019-08-11 01:02:18 GMT 25.046356 51.981457 6,525 246 284 64
2019-08-11 01:02:10 GMT 25.049387 51.992123 6,525 264 280 -64
2019-08-11 01:01:59 GMT 25.050179 52.007256 6,525 270 277 0
2019-08-11 01:01:48 GMT 25.050270 52.022907 6,550 270 277 0
2019-08-11 01:01:43 GMT 25.050293 52.030842 6,550 270 277 0
2019-08-11 01:01:36 GMT 25.050318 52.040009 6,550 270 277 0
2019-08-11 01:01:26 GMT 25.050411 52.054104 6,525 270 277 0
2019-08-11 01:01:16 GMT 25.050476 52.067974 6,525 270 277 0
2019-08-11 01:01:05 GMT 25.050364 52.083332 6,550 272 277 0
2019-08-11 01:00:51 GMT 25.049946 52.105564 6,550 269 276 64
2019-08-11 01:00:43 GMT 25.050085 52.114529 6,550 270 276 64
2019-08-11 01:00:33 GMT 25.049286 52.128754 6,525 287 271 0
2019-08-11 01:00:22 GMT 25.044296 52.142994 6,525 303 269 0
2019-08-11 01:00:15 GMT 25.038391 52.151440 6,550 343 265 0
2019-08-11 01:00:03 GMT 25.027508 52.160183 6,550 330 266 0
2019-08-11 01:00:00 GMT 25.022141 52.162579 6,550 341 265 0
2019-08-11 00:59:57 GMT 25.020035 52.163288 6,550 341 265 0
2019-08-11 00:59:51 GMT 25.012518 52.164692 6,525 1 270 0
2019-08-11 00:59:43 GMT 25.002136 52.163811 6,525 17 277 0
2019-08-11 00:59:38 GMT 24.997063 52.162102 6,525 22 279 0
2019-08-11 00:59:35 GMT 24.991745 52.159374 6,525 35 283 0
2019-08-11 00:59:28 GMT 24.985703 52.154999 6,525 41 285 64
2019-08-11 00:59:25 GMT 24.981354 52.150471 6,525 53 288 64
2019-08-11 00:59:15 GMT 24.974951 52.140076 6,525 66 293 64
2019-08-11 00:59:08 GMT 24.972111 52.129089 6,525 85 301 -64
2019-08-11 00:59:03 GMT 24.971413 52.119968 6,525 89 302 -64
2019-08-11 00:58:57 GMT 24.971329 52.111969 6,525 88 301 0
2019-08-11 00:58:53 GMT 24.971237 52.104137 6,525 88 301 0
2019-08-11 00:58:44 GMT 24.971008 52.093456 6,525 87 299 0
2019-08-11 00:58:35 GMT 24.970482 52.078770 6,525 86 299 0
2019-08-11 00:58:29 GMT 24.970047 52.069653 6,525 86 298 0
2019-08-11 00:58:25 GMT 24.969688 52.063274 6,525 85 297 0
2019-08-11 00:58:19 GMT 24.969040 52.053577 6,525 85 297 0
2019-08-11 00:58:14 GMT 24.968536 52.047119 6,525 84 297 -64
2019-08-11 00:58:09 GMT 24.967827 52.039436 6,550 83 296 0
2019-08-11 00:58:03 GMT 24.966797 52.030132 6,550 82 295 -64
2019-08-11 00:57:52 GMT 24.965057 52.014416 6,550 88 298 -64
2019-08-11 00:57:47 GMT 24.964691 52.004444 6,550 89 298 -64
2019-08-11 00:57:42 GMT 24.964874 51.998493 6,550 96 301 128
2019-08-11 00:57:35 GMT 24.966019 51.988781 6,550 109 308 0
2019-08-11 00:57:30 GMT 24.968107 51.981606 6,550 117 310 0
2019-08-11 00:57:25 GMT 24.971924 51.973988 6,550 125 314 0
2019-08-11 00:57:17 GMT 24.981308 51.963146 6,525 149 318 0
2019-08-11 00:57:10 GMT 24.988729 51.958130 6,525 159 318 64
2019-08-11 00:57:02 GMT 25.001083 51.953888 6,525 177 318 0
2019-08-11 00:56:58 GMT 25.004789 51.953518 6,525 179 318 0
2019-08-11 00:56:52 GMT 25.014566 51.954037 6,525 192 316 0
2019-08-11 00:56:47 GMT 25.021179 51.955769 6,525 202 313 0
2019-08-11 00:56:43 GMT 25.027222 51.958618 6,525 215 309 0
2019-08-11 00:56:36 GMT 25.035141 51.964367 6,525 221 307 64
2019-08-11 00:56:27 GMT 25.043800 51.975540 6,525 249 296 0
2019-08-11 00:56:16 GMT 25.048967 51.991138 6,525 264 290 -64
2019-08-11 00:56:05 GMT 25.049698 52.006428 6,525 270 288 0
2019-08-11 00:55:54 GMT 25.049759 52.022907 6,525 270 288 0
2019-08-11 00:55:49 GMT 25.049789 52.032269 6,525 270 288 0
2019-08-11 00:55:44 GMT 25.049852 52.038143 6,525 270 288 0
2019-08-11 00:55:33 GMT 25.050018 52.054035 6,525 270 289 0
2019-08-11 00:55:23 GMT 25.050201 52.069042 6,525 270 289 0
2019-08-11 00:55:12 GMT 25.050411 52.084938 6,550 270 289 0
2019-08-11 00:55:06 GMT 25.050505 52.094372 6,550 270 289 -64
2019-08-11 00:54:59 GMT 25.050550 52.103489 6,550 270 288 0
2019-08-11 00:54:56 GMT 25.050550 52.108620 6,550 270 288 0
2019-08-11 00:54:49 GMT 25.050613 52.118885 6,550 271 288 64
2019-08-11 00:54:44 GMT 25.050293 52.127636 6,550 276 286 64
2019-08-11 00:54:39 GMT 25.049526 52.132820 6,550 287 284 0
2019-08-11 00:54:36 GMT 25.048233 52.137806 6,550 294 282 0
2019-08-11 00:54:29 GMT 25.044434 52.146606 6,550 305 280 0
2019-08-11 00:54:26 GMT 25.041147 52.151791 6,550 316 280 0
2019-08-11 00:54:15 GMT 25.030487 52.161686 6,550 333 279 0
2019-08-11 00:54:07 GMT 25.022667 52.165573 6,550 347 279 0
2019-08-11 00:54:02 GMT 25.015411 52.167408 6,525 353 279 0
2019-08-11 00:53:57 GMT 25.009552 52.167713 6,525 8 281 0
2019-08-11 00:53:53 GMT 25.002457 52.166851 6,525 31 287 0
2019-08-11 00:53:45 GMT 24.994177 52.163761 6,550 28 286 0
2019-08-11 00:53:35 GMT 24.983322 52.155712 6,525 47 292 64
2019-08-11 00:53:25 GMT 24.975311 52.143402 6,525 71 301 0
2019-08-11 00:53:14 GMT 24.971649 52.126770 6,525 87 306 -64
2019-08-11 00:53:04 GMT 24.971226 52.111214 6,525 88 306 0
2019-08-11 00:53:01 GMT 24.971146 52.107746 6,525 88 306 0
2019-08-11 00:52:52 GMT 24.970760 52.092659 6,525 87 305 0
2019-08-11 00:52:46 GMT 24.970388 52.082142 6,525 87 305 0
2019-08-11 00:52:40 GMT 24.970047 52.074841 6,550 86 304 0
2019-08-11 00:52:29 GMT 24.968903 52.057037 6,550 84 304 0
2019-08-11 00:52:19 GMT 24.967501 52.042080 6,550 82 303 0
2019-08-11 00:52:13 GMT 24.966293 52.031506 6,550 91 307 -64
2019-08-11 00:52:09 GMT 24.965652 52.026165 6,550 83 304 0
2019-08-11 00:52:05 GMT 24.964989 52.020626 6,550 91 307 -64
2019-08-11 00:51:57 GMT 24.964149 52.007618 6,550 89 307 -64
2019-08-11 00:51:54 GMT 24.964149 52.003422 6,550 102 311 64
2019-08-11 00:51:45 GMT 24.966198 51.986786 6,550 110 313 0
2019-08-11 00:51:37 GMT 24.969772 51.977539 6,550 122 315 0
2019-08-11 00:51:34 GMT 24.973251 51.971741 6,550 132 317 0
2019-08-11 00:51:26 GMT 24.980255 51.963856 6,550 148 318 0
2019-08-11 00:51:15 GMT 24.993942 51.955719 6,525 166 318 64
2019-08-11 00:51:04 GMT 25.011246 51.953632 6,525 189 316 0
2019-08-11 00:50:58 GMT 25.020664 51.955746 6,525 195 314 0
2019-08-11 00:50:54 GMT 25.024900 51.957558 6,525 209 310 0
2019-08-11 00:50:43 GMT 25.038074 51.967770 6,525 230 304 64
2019-08-11 00:50:33 GMT 25.045761 51.980183 6,525 250 298 0
2019-08-11 00:50:22 GMT 25.049377 51.995800 6,525 269 291 -64
2019-08-11 00:50:11 GMT 25.049665 52.011765 6,525 270 289 0
2019-08-11 00:50:00 GMT 25.049713 52.028038 6,525 270 288 0
2019-08-11 00:49:50 GMT 25.049852 52.042755 6,525 270 288 0
2019-08-11 00:49:39 GMT 25.050085 52.058769 6,525 270 289 0
2019-08-11 00:49:36 GMT 25.050201 52.065533 6,525 270 289 0
2019-08-11 00:49:29 GMT 25.050339 52.074078 6,525 270 289 0
2019-08-11 00:49:21 GMT 25.050505 52.085976 6,550 270 289 0
2019-08-11 00:49:18 GMT 25.050568 52.090252 6,550 270 289 0
2019-08-11 00:49:13 GMT 25.050644 52.097790 6,550 270 288 -64
2019-08-11 00:49:07 GMT 25.050690 52.106133 6,550 270 288 -64
2019-08-11 00:49:02 GMT 25.050705 52.115986 6,550 270 288 0
2019-08-11 00:48:56 GMT 25.050705 52.122395 6,550 272 288 64
2019-08-11 00:48:53 GMT 25.050550 52.128002 6,550 277 288 64
2019-08-11 00:48:46 GMT 25.049423 52.136639 6,525 287 287 0
2019-08-11 00:48:40 GMT 25.046677 52.145081 6,525 297 284 0
2019-08-11 00:48:34 GMT 25.042740 52.152405 6,525 313 283 -64
2019-08-11 00:48:31 GMT 25.039518 52.156609 6,550 317 282 0
2019-08-11 00:48:21 GMT 25.028046 52.166035 6,550 339 279 64
2019-08-11 00:48:13 GMT 25.020105 52.169254 6,525 349 280 0
2019-08-11 00:48:07 GMT 25.012985 52.170513 6,525 10 283 64
2019-08-11 00:48:03 GMT 25.007164 52.170395 6,525 10 283 64
2019-08-11 00:47:55 GMT 24.995224 52.167053 6,525 16 284 0
2019-08-11 00:47:52 GMT 24.993622 52.166340 6,525 30 287 64
2019-08-11 00:47:48 GMT 24.987946 52.162678 6,525 42 291 64
2019-08-11 00:47:41 GMT 24.981653 52.156609 6,525 50 293 64
2019-08-11 00:47:31 GMT 24.974350 52.143555 6,525 73 301 0
2019-08-11 00:47:26 GMT 24.972483 52.136448 6,525 82 304 -64
2019-08-11 00:47:20 GMT 24.971552 52.127537 6,525 88 306 -64
2019-08-11 00:47:09 GMT 24.971178 52.110695 6,525 88 305 0
2019-08-11 00:46:59 GMT 24.970713 52.093491 6,525 87 304 0
2019-08-11 00:46:49 GMT 24.970015 52.078304 6,525 86 303 0
2019-08-11 00:46:45 GMT 24.969549 52.070583 6,525 85 303 0
2019-08-11 00:46:37 GMT 24.968674 52.059681 6,550 84 302 -64
2019-08-11 00:46:34 GMT 24.968153 52.054153 6,550 82 301 -64
2019-08-11 00:46:27 GMT 24.967129 52.045296 6,550 81 301 -64
2019-08-11 00:46:16 GMT 24.964802 52.029228 6,550 80 303 0
2019-08-11 00:46:05 GMT 24.962381 52.010834 6,550 86 309 0
2019-08-11 00:45:55 GMT 24.962660 51.995129 6,550 99 316 128
2019-08-11 00:45:51 GMT 24.963823 51.987980 6,550 112 320 0
2019-08-11 00:45:44 GMT 24.967175 51.978287 6,550 121 322 0
2019-08-11 00:45:34 GMT 24.976227 51.965130 6,550 141 323 0
2019-08-11 00:45:23 GMT 24.989502 51.955719 6,550 161 323 0
2019-08-11 00:45:18 GMT 24.998598 51.952740 6,550 170 323 0
2019-08-11 00:45:12 GMT 25.006279 51.951962 6,550 183 320 0
2019-08-11 00:45:07 GMT 25.014496 51.952717 6,550 193 318 0
2019-08-11 00:45:01 GMT 25.022324 51.955212 6,550 205 315 0
2019-08-11 00:44:55 GMT 25.030300 51.959736 6,525 215 314 64
2019-08-11 00:44:51 GMT 25.034729 51.963398 6,525 225 311 64
2019-08-11 00:44:39 GMT 25.044662 51.977489 6,525 247 309 0
2019-08-11 00:44:35 GMT 25.047409 51.985424 6,525 260 307 -64
2019-08-11 00:44:30 GMT 25.048550 51.992435 6,525 267 303 -64
2019-08-11 00:44:22 GMT 25.048965 52.003937 6,525 270 301 0
2019-08-11 00:44:19 GMT 25.048920 52.009327 6,525 271 301 0
2019-08-11 00:44:13 GMT 25.048922 52.017723 6,525 270 300 0
2019-08-11 00:44:08 GMT 25.048922 52.025238 6,525 270 300 0
2019-08-11 00:44:04 GMT 25.048922 52.034100 6,525 270 300 0
2019-08-11 00:43:57 GMT 25.048965 52.041779 6,525 270 300 0
2019-08-11 00:43:53 GMT 25.049061 52.049908 6,525 270 300 0
2019-08-11 00:43:47 GMT 25.049154 52.057991 6,525 269 300 0
2019-08-11 00:43:41 GMT 25.049294 52.066593 6,525 269 300 0
2019-08-11 00:43:35 GMT 25.049561 52.076061 6,525 269 301 0
2019-08-11 00:43:25 GMT 25.049927 52.090912 6,550 269 301 -64
2019-08-11 00:43:14 GMT 25.050339 52.107952 6,550 269 301 0
2019-08-11 00:43:04 GMT 25.050644 52.123909 6,550 271 302 64
2019-08-11 00:42:55 GMT 25.049526 52.138783 6,525 291 298 -64
2019-08-11 00:42:52 GMT 25.049061 52.141010 6,550 288 299 -64
2019-08-11 00:42:47 GMT 25.046036 52.149658 6,550 303 296 64
2019-08-11 00:42:42 GMT 25.043198 52.154949 6,525 310 294 -64
2019-08-11 00:42:35 GMT 25.036957 52.162880 6,550 336 292 0
2019-08-11 00:42:31 GMT 25.032255 52.166920 6,550 327 292 0
2019-08-11 00:42:20 GMT 25.019175 52.173504 6,525 348 290 64
2019-08-11 00:42:10 GMT 25.005161 52.174332 6,525 9 294 64
2019-08-11 00:42:05 GMT 24.996737 52.171898 6,525 45 303 0
2019-08-11 00:41:56 GMT 24.987333 52.166195 6,525 34 300 64
2019-08-11 00:41:49 GMT 24.980490 52.158836 6,525 55 306 64
2019-08-11 00:41:38 GMT 24.973368 52.143860 6,525 80 315 -64
2019-08-11 00:41:28 GMT 24.971413 52.127537 6,525 88 317 0
2019-08-11 00:41:17 GMT 24.970963 52.109325 6,525 87 316 0
2019-08-11 00:41:04 GMT 24.970139 52.089489 6,525 86 315 0
2019-08-11 00:40:53 GMT 24.968805 52.071880 6,550 84 315 0
2019-08-11 00:40:50 GMT 24.968079 52.064209 6,550 82 314 -64
2019-08-11 00:40:44 GMT 24.967255 52.057037 6,550 81 314 -64
2019-08-11 00:40:35 GMT 24.964920 52.042084 6,550 77 312 -64
2019-08-11 00:40:24 GMT 24.961349 52.025146 6,550 79 314 64
2019-08-11 00:40:14 GMT 24.959867 52.009228 6,550 96 321 0
2019-08-11 00:40:02 GMT 24.963358 51.990932 6,550 116 327 0
2019-08-11 00:39:54 GMT 24.969410 51.979427 6,550 129 328 0
2019-08-11 00:39:50 GMT 24.973480 51.974438 6,550 135 329 0
2019-08-11 00:39:41 GMT 24.985657 51.965130 6,550 156 329 0
2019-08-11 00:39:31 GMT 25.000320 51.960407 6,525 175 327 0
2019-08-11 00:39:24 GMT 25.011959 51.960514 6,525 192 324 64
2019-08-11 00:39:20 GMT 25.015732 51.961212 6,525 198 324 64
2019-08-11 00:39:09 GMT 25.030859 51.968441 6,525 218 319 64
2019-08-11 00:39:02 GMT 25.040728 51.978752 6,525 239 313 -64
2019-08-11 00:38:59 GMT 25.041891 51.980621 6,525 239 313 -64
2019-08-11 00:38:52 GMT 25.047546 51.992237 6,550 250 309 -64
2019-08-11 00:38:48 GMT 25.048828 51.995899 6,550 250 308 -64
2019-08-11 00:38:38 GMT 25.053949 52.011246 6,550 251 308 0
2019-08-11 00:38:27 GMT 25.059082 52.026775 6,525 250 307 0
2019-08-11 00:38:16 GMT 25.064346 52.042542 6,525 250 307 0
2019-08-11 00:38:05 GMT 25.069748 52.058563 6,525 250 306 0
2019-08-11 00:37:55 GMT 25.074783 52.073669 6,525 250 306 0
2019-08-11 00:37:45 GMT 25.080002 52.089184 6,525 250 305 0
2019-08-11 00:37:32 GMT 25.086163 52.107479 6,525 251 305 0
2019-08-11 00:37:21 GMT 25.091400 52.123413 6,550 251 304 0
2019-08-11 00:37:16 GMT 25.095287 52.135567 6,550 251 303 0
2019-08-11 00:37:05 GMT 25.099384 52.148888 6,550 253 303 0
2019-08-11 00:37:02 GMT 25.100267 52.151840 6,550 253 303 0
2019-08-11 00:36:51 GMT 25.104458 52.167385 6,550 255 303 0
2019-08-11 00:36:39 GMT 25.108521 52.185211 6,525 271 301 -128
2019-08-11 00:36:29 GMT 25.109207 52.200470 6,550 274 299 -64
2019-08-11 00:36:19 GMT 25.108017 52.216747 6,550 278 299 64
2019-08-11 00:36:09 GMT 25.105295 52.231178 6,525 293 297 0
2019-08-11 00:35:58 GMT 25.098175 52.246094 6,525 312 295 0
2019-08-11 00:35:48 GMT 25.088165 52.256783 6,525 329 296 0
2019-08-11 00:35:37 GMT 25.075562 52.263844 6,525 345 296 -64
2019-08-11 00:35:27 GMT 25.061050 52.267048 6,550 354 298 0
2019-08-11 00:35:16 GMT 25.045944 52.268879 6,525 354 301 0
2019-08-11 00:35:05 GMT 25.030626 52.270721 6,525 354 302 0
2019-08-11 00:34:56 GMT 25.016241 52.272430 6,525 354 301 0
2019-08-11 00:34:53 GMT 25.014404 52.272644 6,525 354 301 0
2019-08-11 00:34:45 GMT 25.001904 52.274193 6,525 354 300 0
2019-08-11 00:34:35 GMT 24.988724 52.275848 6,550 354 300 -64
2019-08-11 00:34:32 GMT 24.985519 52.276257 6,550 354 300 -64
2019-08-11 00:34:21 GMT 24.969782 52.278339 6,550 353 298 0
2019-08-11 00:34:12 GMT 24.957399 52.279945 6,550 355 298 128
2019-08-11 00:34:01 GMT 24.942627 52.280834 6,525 4 301 64
2019-08-11 00:33:52 GMT 24.929049 52.278393 6,525 23 303 0
2019-08-11 00:33:42 GMT 24.915573 52.270966 6,525 39 307 64
2019-08-11 00:33:39 GMT 24.914013 52.269787 6,525 39 307 64
2019-08-11 00:33:29 GMT 24.903399 52.257713 6,525 56 312 0
2019-08-11 00:33:18 GMT 24.895905 52.243462 6,525 64 314 0
2019-08-11 00:33:08 GMT 24.889061 52.227814 6,525 64 313 0
2019-08-11 00:32:57 GMT 24.882263 52.212109 6,550 64 312 0
2019-08-11 00:32:47 GMT 24.876074 52.197548 6,550 64 312 0
2019-08-11 00:32:38 GMT 24.869934 52.183331 6,550 64 313 -64
2019-08-11 00:32:25 GMT 24.862885 52.167004 6,550 64 313 0
2019-08-11 00:32:13 GMT 24.855423 52.149811 6,525 64 310 256
2019-08-11 00:32:03 GMT 24.849472 52.135822 6,450 65 308 512
2019-08-11 00:31:54 GMT 24.843487 52.121574 6,350 65 307 576
2019-08-11 00:31:43 GMT 24.837112 52.106018 6,275 65 306 512
2019-08-11 00:31:31 GMT 24.830126 52.088772 6,150 66 305 576
2019-08-11 00:31:21 GMT 24.824936 52.075806 6,075 66 305 576
2019-08-11 00:31:09 GMT 24.818024 52.058258 5,925 66 305 704
2019-08-11 00:31:00 GMT 24.812943 52.045086 5,825 67 305 640
2019-08-11 00:30:48 GMT 24.806524 52.028400 5,725 67 303 576
2019-08-11 00:30:38 GMT 24.800949 52.014008 5,625 66 302 576
2019-08-11 00:30:26 GMT 24.794233 51.997101 5,500 65 301 512
2019-08-11 00:30:16 GMT 24.788555 51.982899 5,400 69 303 640
2019-08-11 00:30:07 GMT 24.784653 51.968994 5,300 80 310 704
2019-08-11 00:29:55 GMT 24.782736 51.951443 5,175 91 317 704
2019-08-11 00:29:45 GMT 24.783899 51.935223 5,050 103 323 576
2019-08-11 00:29:35 GMT 24.788275 51.918278 4,950 113 328 512
2019-08-11 00:29:24 GMT 24.795631 51.902733 4,850 125 332 576
2019-08-11 00:29:14 GMT 24.805847 51.888988 4,750 137 335 640
2019-08-11 00:29:02 GMT 24.820358 51.876324 4,625 149 337 704
2019-08-11 00:28:51 GMT 24.834732 51.868286 4,500 160 337 704
2019-08-11 00:28:41 GMT 24.850004 51.863190 4,375 169 336 576
2019-08-11 00:28:30 GMT 24.867874 51.859692 4,250 170 336 640
2019-08-11 00:28:22 GMT 24.882172 51.857075 4,175 170 335 576
2019-08-11 00:28:10 GMT 24.898325 51.854122 4,075 170 334 576
2019-08-11 00:27:59 GMT 24.915596 51.850906 3,975 170 333 576
2019-08-11 00:27:48 GMT 24.930958 51.848057 3,925 170 331 192
2019-08-11 00:27:37 GMT 24.949173 51.844788 3,875 170 331 256
2019-08-11 00:27:22 GMT 24.971878 51.840771 3,825 170 329 128
2019-08-11 00:27:14 GMT 24.982910 51.838787 3,800 170 329 256
2019-08-11 00:27:05 GMT 24.997238 51.836292 3,750 170 329 320
2019-08-11 00:26:54 GMT 25.012751 51.833549 3,700 170 329 384
2019-08-11 00:26:43 GMT 25.030254 51.830544 3,625 171 328 256
2019-08-11 00:26:34 GMT 25.043381 51.828259 3,625 170 327 -64
2019-08-11 00:26:23 GMT 25.061026 51.825100 3,600 170 325 320
2019-08-11 00:26:12 GMT 25.075699 51.822460 3,525 170 326 64
2019-08-11 00:26:02 GMT 25.091537 51.819611 3,525 170 327 0
2019-08-11 00:25:52 GMT 25.106833 51.816860 3,525 170 327 0
2019-08-11 00:25:41 GMT 25.122566 51.814011 3,525 170 327 0
2019-08-11 00:25:30 GMT 25.138906 51.811058 3,525 170 327 0
2019-08-11 00:25:20 GMT 25.154205 51.808270 3,525 170 328 0
2019-08-11 00:25:09 GMT 25.170424 51.805305 3,525 170 328 0
2019-08-11 00:24:57 GMT 25.188345 51.801987 3,525 170 328 0
2019-08-11 00:24:48 GMT 25.201893 51.799553 3,525 170 328 0
2019-08-11 00:24:38 GMT 25.218279 51.796547 3,525 170 328 0
2019-08-11 00:24:27 GMT 25.234360 51.793621 3,525 170 328 0
2019-08-11 00:24:16 GMT 25.249832 51.790821 3,525 170 327 0
2019-08-11 00:24:05 GMT 25.266129 51.787922 3,525 170 325 0
2019-08-11 00:23:55 GMT 25.282013 51.785126 3,525 170 322 0
2019-08-11 00:23:45 GMT 25.313278 51.779633 3,525 168 314 -64
2019-08-11 00:23:34 GMT 25.313278 51.779633 3,525 168 314 -64
2019-08-11 00:23:23 GMT 25.328094 51.777061 3,525 170 315 -64
2019-08-11 00:23:13 GMT 25.343216 51.774139 3,550 168 314 0
2019-08-11 00:23:06 GMT 25.352768 51.771828 3,550 69 277 448
2019-08-11 00:23:00 GMT 25.362078 51.768665 3,525 69 277 448
2019-08-11 00:22:51 GMT 25.372831 51.762604 3,525 144 313 0
2019-08-11 00:22:41 GMT 25.384516 51.751617 3,525 130 310 0
2019-08-11 00:22:22 GMT 25.397085 51.725861 3,525 113 303 0
2019-08-11 00:22:19 GMT 25.397970 51.721508 3,525 97 296 0
2019-08-11 00:22:09 GMT 25.398529 51.706066 3,525 82 290 -128
2019-08-11 00:21:58 GMT 25.395456 51.690620 3,550 69 286 -64
2019-08-11 00:21:48 GMT 25.390522 51.676888 3,525 68 284 576
2019-08-11 00:21:38 GMT 25.385605 51.662952 3,400 69 283 640
2019-08-11 00:21:27 GMT 25.380707 51.648205 3,300 70 279 448
2019-08-11 00:21:16 GMT 25.375811 51.633514 3,200 66 273 640
2019-08-11 00:21:12 GMT 25.373997 51.628693 3,150 57 263 832
2019-08-11 00:21:03 GMT 25.367897 51.616673 3,000 53 259 1024
2019-08-11 00:20:55 GMT 25.362671 51.609394 2,875 45 251 1088
2019-08-11 00:20:52 GMT 25.359329 51.605633 2,800 38 246 960
2019-08-11 00:20:44 GMT 25.353373 51.600864 2,700 24 236 1088
2019-08-11 00:20:34 GMT 25.343216 51.596424 2,525 10 228 1024
2019-08-11 00:20:27 GMT 25.335159 51.595203 2,400 2 223 896
2019-08-11 00:20:23 GMT 25.331726 51.595322 2,350 355 217 704
2019-08-11 00:20:13 GMT 25.322113 51.597187 2,250 343 204 384
2019-08-11 00:20:02 GMT 25.312271 51.601307 2,125 338 195 768
2019-08-11 00:19:54 GMT 25.304581 51.604870 1,925 338 194 2816
2019-08-11 00:19:51 GMT 25.303747 51.605270 1,900 338 191 1984
2019-08-11 00:19:41 GMT 25.295135 51.609261 1,400 338 195 3392
2019-08-11 00:19:30 GMT 25.286013 51.613354 825 339 200 2944
2019-08-11 00:19:23 GMT 25.279169 51.616310 600 339 196 1216
2019-08-11 00:19:13 GMT 25.271255 51.619835 550 339 138 0
2019-08-11 00:19:05 GMT 25.265579 51.622314 550 339 131 0
2019-08-11 00:18:58 GMT 25.262548 51.623669 550 339 88 64
2019-08-11 00:18:54 GMT 25.260132 51.624756 575 337 80
2019-08-11 00:18:27 GMT 25.256092 51.626499 27,400 340 0
2019-08-11 00:18:09 GMT 25.256090 51.626507 27,400 340 0
2019-08-11 00:18:00 GMT 25.256092 51.626511 27,400 340 4
2019-08-11 00:17:48 GMT 25.255880 51.626633 27,400 8 6
2019-08-11 00:17:39 GMT 25.255611 51.626614 27,400 61 7
2019-08-11 00:17:23 GMT 25.255360 51.626041 27,400 67 9
2019-08-11 00:17:15 GMT 25.255241 51.625767 27,400 67 7
2019-08-11 00:16:35 GMT 25.255051 51.625263 27,400 67 0
2019-08-11 00:16:20 GMT 25.255054 51.625259 27,400 67 0
2019-08-11 00:16:02 GMT 25.255051 51.625252 27,400 67 0
2019-08-11 00:15:51 GMT 25.255054 51.625259 27,400 67 0
2019-08-11 00:15:41 GMT 25.255051 51.625252 27,400 67 2
2019-08-11 00:15:27 GMT 25.254993 51.625111 27,400 67 4
2019-08-11 00:15:17 GMT 25.254936 51.624947 27,400 70 5
2019-08-11 00:15:07 GMT 25.254856 51.624729 27,400 70 4
2019-08-11 00:14:30 GMT 25.254810 51.624561 27,400 70 0
2019-08-11 00:14:23 GMT 25.254799 51.624554 27,400 70 0
2019-08-11 00:14:14 GMT 25.254774 51.624512 27,400 75 4
2019-08-11 00:13:14 GMT 25.255718 51.623566 27,400 157 8
2019-08-11 00:13:08 GMT 25.255932 51.623470 27,400 157 7
2019-08-11 00:12:59 GMT 25.256229 51.623344 27,400 157 10
2019-08-11 00:12:46 GMT 25.256777 51.623112 27,400 157 11
2019-08-11 00:12:34 GMT 25.257328 51.622860 27,400 157 10
2019-08-11 00:12:28 GMT 25.257580 51.622746 27,400 157 11
2019-08-11 00:12:16 GMT 25.258139 51.622501 27,400 157 15
2019-08-11 00:12:04 GMT 25.258884 51.622173 27,400 157 14
2019-08-11 00:11:18 GMT 25.261871 51.620865 27,400 157 15
2019-08-11 00:11:12 GMT 25.262192 51.620724 27,400 157 15
2019-08-11 00:10:58 GMT 25.263039 51.620358 27,400 157 14
2019-08-11 00:10:49 GMT 25.263542 51.620129 27,400 157 13

Making use of Plane Finder data

You are free to use the raw flight data, aircraft information and images provided in this report for your own purposes provided the data is correctly attributed to Plane Finder. We ask that you please credit Plane Finder and link to planefinder.net in close proximity to the content.

Optionally one of the following logos (no smaller then 150x24px) can be used and must link to planefinder.net

Embedding the Plane Finder map

You are welcome to embed the Plane Finder playback map on your website to offer visitors a more interactive experience. We suggest using the following HTML code:

<iframe src="//planefinder.net/data/report/QR920-A7-BBC-7700-squawk-2019-08-11/map" width="800" height="600" seamless="seamless"></iframe>

Where our data comes from

Plane Finder has a global network of data feeds and antenna radars that receive data broadcast directly from aircraft. The primary technologies used are ADS-B and MLAT. We also show feeds from the FAA and a FLARM glider feed.

Click here to find out more about the Plane Finder network.

How we collect our data